createdAt,value
2018-12-25T00:01:45.703Z,71.13
2018-12-25T00:04:14.312Z,70.69
2018-12-25T00:06:42.952Z,70.79
2018-12-25T00:09:11.494Z,71.04
2018-12-25T00:11:40.128Z,74.08
2018-12-25T00:14:08.717Z,70.93
2018-12-25T00:16:37.203Z,68.77
2018-12-25T00:19:06.174Z,70.91
2018-12-25T00:21:35.078Z,71.24
2018-12-25T00:24:03.700Z,72.00
2018-12-25T00:26:32.157Z,72.20
2018-12-25T00:29:00.778Z,71.77
2018-12-25T00:31:29.280Z,71.44
2018-12-25T00:33:57.942Z,72.18
2018-12-25T00:36:26.551Z,71.85
2018-12-25T00:38:55.151Z,71.69
2018-12-25T00:41:23.646Z,71.84
2018-12-25T00:43:52.301Z,71.24
2018-12-25T00:46:20.853Z,73.10
2018-12-25T00:48:49.510Z,73.05
2018-12-25T00:51:18.650Z,70.16
2018-12-25T00:53:47.109Z,69.76
2018-12-25T00:56:15.720Z,70.23
2018-12-25T00:58:44.310Z,71.10
2018-12-25T01:01:13.108Z,71.57
2018-12-25T01:03:41.566Z,72.32
2018-12-25T01:06:10.346Z,71.94
2018-12-25T01:08:38.869Z,72.00
2018-12-25T01:11:07.525Z,71.47
2018-12-25T01:13:36.062Z,71.58
2018-12-25T01:16:04.648Z,71.37
2018-12-25T01:18:33.195Z,71.36
2018-12-25T01:21:01.746Z,71.32
2018-12-25T01:23:30.191Z,72.00
2018-12-25T01:25:58.747Z,71.52
2018-12-25T01:28:27.363Z,70.83
2018-12-25T01:30:56.003Z,69.74
2018-12-25T01:33:24.494Z,69.45
2018-12-25T01:35:53.007Z,70.12
2018-12-25T01:38:21.482Z,71.59
2018-12-25T01:40:50.046Z,72.16
2018-12-25T01:43:18.566Z,72.34
2018-12-25T01:45:47.117Z,72.43
2018-12-25T01:48:15.726Z,71.67
2018-12-25T01:50:44.297Z,71.52
2018-12-25T01:53:12.926Z,71.69
2018-12-25T01:55:41.547Z,71.52
2018-12-25T01:58:10.090Z,72.31
2018-12-25T02:00:38.629Z,71.09
2018-12-25T02:03:07.073Z,69.71
2018-12-25T02:05:35.765Z,71.08
2018-12-25T02:08:04.356Z,70.40
2018-12-25T02:10:32.981Z,71.06
2018-12-25T02:13:01.522Z,71.55
2018-12-25T02:15:30.220Z,72.28
2018-12-25T02:17:58.746Z,72.28
2018-12-25T02:20:27.328Z,71.91
2018-12-25T02:22:55.875Z,72.49
2018-12-25T02:25:24.405Z,72.51
2018-12-25T02:27:53.756Z,72.94
2018-12-25T02:30:22.353Z,71.72
2018-12-25T02:32:50.930Z,72.94
2018-12-25T02:35:19.497Z,73.80
2018-12-25T02:37:48.176Z,71.33
2018-12-25T02:40:16.826Z,71.62
2018-12-25T02:42:45.274Z,71.48
2018-12-25T02:45:13.879Z,70.22
2018-12-25T02:47:42.425Z,70.91
2018-12-25T02:50:10.863Z,71.45
2018-12-25T02:52:39.608Z,70.81
2018-12-25T02:55:08.228Z,72.03
2018-12-25T02:57:36.797Z,71.76
2018-12-25T03:00:07.242Z,72.19
2018-12-25T03:02:35.787Z,72.19
2018-12-25T03:05:04.973Z,72.53
2018-12-25T03:07:33.545Z,72.01
2018-12-25T03:10:02.156Z,72.63
2018-12-25T03:12:30.789Z,71.77
2018-12-25T03:14:59.435Z,71.19
2018-12-25T03:17:27.998Z,71.08
2018-12-25T03:19:59.969Z,70.95
2018-12-25T03:22:26.803Z,71.26
2018-12-25T03:24:55.314Z,71.09
2018-12-25T03:27:23.873Z,71.05
2018-12-25T03:29:52.384Z,71.87
2018-12-25T03:32:20.928Z,71.52
2018-12-25T03:34:49.492Z,72.18
2018-12-25T03:37:18.069Z,71.65
2018-12-25T03:39:46.656Z,71.47
2018-12-25T03:42:15.204Z,71.80
2018-12-25T03:44:43.654Z,71.90
2018-12-25T03:47:12.126Z,72.31
2018-12-25T03:49:40.661Z,71.98
2018-12-25T03:52:09.209Z,70.94
2018-12-25T03:54:37.751Z,70.99
2018-12-25T03:57:06.332Z,70.43
2018-12-25T03:59:34.913Z,71.20
2018-12-25T04:02:03.388Z,71.61
2018-12-25T04:04:32.005Z,71.07
2018-12-25T04:07:00.586Z,72.07
2018-12-25T04:09:29.165Z,71.50
2018-12-25T04:11:57.741Z,71.44
2018-12-25T04:14:26.319Z,71.57
2018-12-25T04:16:54.908Z,72.00
2018-12-25T04:19:23.439Z,70.86
2018-12-25T04:21:51.970Z,71.67
2018-12-25T04:24:20.557Z,73.39
2018-12-25T04:26:49.099Z,71.26
2018-12-25T04:29:17.565Z,70.57
2018-12-25T04:31:46.076Z,70.46
2018-12-25T04:34:14.763Z,70.49
2018-12-25T04:36:43.318Z,69.60
2018-12-25T04:39:11.776Z,70.73
2018-12-25T04:41:40.425Z,70.42
2018-12-25T04:44:08.877Z,70.70
2018-12-25T04:46:37.525Z,71.94
2018-12-25T04:49:05.973Z,72.50
2018-12-25T04:51:35.316Z,71.85
2018-12-25T04:54:03.918Z,72.29
2018-12-25T04:56:32.426Z,71.29
2018-12-25T04:59:00.965Z,71.27
2018-12-25T05:01:29.496Z,74.00
2018-12-25T05:03:58.041Z,71.80
2018-12-25T05:06:26.545Z,71.18
2018-12-25T05:08:54.995Z,71.03
2018-12-25T05:11:23.565Z,71.56
2018-12-25T05:13:52.122Z,70.95
2018-12-25T05:16:21.072Z,70.86
2018-12-25T05:18:49.689Z,71.18
2018-12-25T05:21:18.270Z,69.59
2018-12-25T05:23:46.815Z,70.98
2018-12-25T05:26:15.330Z,70.22
2018-12-25T05:28:43.770Z,70.97
2018-12-25T05:31:12.408Z,70.66
2018-12-25T05:33:40.886Z,70.87
2018-12-25T05:36:09.463Z,71.60
2018-12-25T05:38:38.022Z,71.16
2018-12-25T05:41:06.467Z,74.49
2018-12-25T05:43:35.023Z,71.34
2018-12-25T05:46:03.606Z,70.73
2018-12-25T05:48:32.115Z,71.48
2018-12-25T05:51:00.615Z,70.15
2018-12-25T05:53:29.248Z,70.74
2018-12-25T05:55:57.761Z,69.91
2018-12-25T05:58:26.337Z,71.07
2018-12-25T06:00:54.861Z,71.77
2018-12-25T06:03:23.385Z,71.83
2018-12-25T06:05:51.943Z,70.34
2018-12-25T06:08:20.466Z,71.03
2018-12-25T06:10:49.130Z,71.23
2018-12-25T06:13:17.837Z,71.42
2018-12-25T06:15:46.341Z,70.87
2018-12-25T06:18:14.934Z,70.26
2018-12-25T06:20:43.421Z,70.05
2018-12-25T06:23:12.021Z,70.05
2018-12-25T06:25:40.635Z,72.80
2018-12-25T06:28:09.173Z,71.47
2018-12-25T06:30:37.639Z,70.29
2018-12-25T06:33:06.138Z,70.29
2018-12-25T06:35:34.673Z,69.96
2018-12-25T06:38:03.272Z,70.36
2018-12-25T06:40:31.745Z,70.04
2018-12-25T06:43:00.231Z,70.15
2018-12-25T06:45:28.679Z,70.59
2018-12-25T06:47:57.227Z,70.48
2018-12-25T06:50:26.811Z,69.26
2018-12-25T06:52:55.462Z,70.24
2018-12-25T06:55:23.951Z,70.17
2018-12-25T06:57:52.430Z,70.16
2018-12-25T07:00:21.098Z,70.20
2018-12-25T07:02:49.653Z,71.12
2018-12-25T07:05:18.266Z,69.96
2018-12-25T07:07:46.987Z,70.31
2018-12-25T07:10:15.515Z,69.74
2018-12-25T07:12:44.159Z,70.96
2018-12-25T07:15:12.751Z,68.83
2018-12-25T07:17:41.271Z,68.07
2018-12-25T07:20:09.881Z,67.79
2018-12-25T07:22:38.514Z,67.80
2018-12-25T07:25:07.117Z,67.84
2018-12-25T07:27:35.728Z,67.80
2018-12-25T07:30:05.056Z,68.53
2018-12-25T07:32:33.577Z,68.81
2018-12-25T07:35:02.090Z,67.73
2018-12-25T07:37:31.330Z,68.38
2018-12-25T07:39:59.831Z,68.25
2018-12-25T07:42:28.451Z,68.71
2018-12-25T07:44:57.036Z,69.30
2018-12-25T07:47:25.604Z,69.53
2018-12-25T07:49:54.168Z,69.06
2018-12-25T07:52:22.724Z,68.86
2018-12-25T07:54:51.393Z,68.20
2018-12-25T07:57:19.974Z,67.04
2018-12-25T07:59:48.544Z,67.94
2018-12-25T08:02:17.968Z,69.08
2018-12-25T08:04:46.466Z,68.65
2018-12-25T08:07:15.074Z,68.92
2018-12-25T08:09:43.695Z,69.31
2018-12-25T08:12:12.250Z,69.65
2018-12-25T08:14:40.790Z,68.33
2018-12-25T08:17:09.469Z,68.13
2018-12-25T08:19:38.092Z,68.56
2018-12-25T08:22:06.660Z,69.12
2018-12-25T08:24:35.309Z,70.83
2018-12-25T08:27:04.055Z,69.27
2018-12-25T08:29:32.797Z,67.49
2018-12-25T08:32:01.505Z,67.84
2018-12-25T08:34:30.103Z,69.11
2018-12-25T08:36:58.728Z,70.43
2018-12-25T08:39:27.230Z,69.53
2018-12-25T08:41:55.742Z,68.67
2018-12-25T08:44:24.370Z,69.05
2018-12-25T08:46:53.004Z,69.03
2018-12-25T08:49:21.736Z,69.40
2018-12-25T08:51:50.359Z,68.77
2018-12-25T08:54:18.870Z,68.96
2018-12-25T08:56:47.450Z,68.28
2018-12-25T08:59:16.041Z,71.53
2018-12-25T09:01:44.685Z,69.33
2018-12-25T09:04:13.208Z,68.34
2018-12-25T09:06:41.853Z,68.68
2018-12-25T09:09:10.387Z,68.17
2018-12-25T09:11:38.973Z,69.24
2018-12-25T09:14:08.100Z,68.66
2018-12-25T09:16:36.611Z,68.18
2018-12-25T09:19:05.336Z,69.53
2018-12-25T09:21:33.940Z,69.18
2018-12-25T09:24:02.569Z,68.96
2018-12-25T09:26:31.223Z,69.11
2018-12-25T09:28:59.694Z,68.89
2018-12-25T09:31:28.319Z,68.63
2018-12-25T09:33:56.887Z,68.66
2018-12-25T09:36:25.389Z,69.89
2018-12-25T09:38:53.885Z,67.33
2018-12-25T09:41:22.477Z,67.70
2018-12-25T09:43:51.099Z,67.05
2018-12-25T09:46:19.656Z,67.48
2018-12-25T09:48:48.243Z,66.86
2018-12-25T09:51:16.974Z,67.44
2018-12-25T09:53:45.489Z,68.36
2018-12-25T09:56:14.097Z,67.28
2018-12-25T09:58:42.706Z,67.49
2018-12-25T10:01:11.231Z,67.05
2018-12-25T10:03:40.628Z,66.38
2018-12-25T10:06:09.172Z,66.96
2018-12-25T10:08:37.706Z,66.99
2018-12-25T10:11:06.323Z,68.78
2018-12-25T10:13:34.881Z,66.63
2018-12-25T10:16:03.332Z,65.59
2018-12-25T10:18:31.885Z,65.46
2018-12-25T10:21:00.430Z,66.26
2018-12-25T10:23:29.032Z,66.57
2018-12-25T10:25:57.724Z,66.29
2018-12-25T10:28:27.321Z,66.70
2018-12-25T10:30:55.943Z,66.61
2018-12-25T10:33:24.582Z,66.72
2018-12-25T10:35:53.213Z,66.07
2018-12-25T10:38:21.668Z,65.47
2018-12-25T10:40:50.134Z,66.55
2018-12-25T10:43:18.703Z,66.55
2018-12-25T10:45:47.210Z,69.50
2018-12-25T10:48:15.814Z,67.81
2018-12-25T10:50:44.355Z,65.34
2018-12-25T10:53:12.963Z,64.96
2018-12-25T10:55:41.677Z,66.06
2018-12-25T10:58:10.351Z,64.49
2018-12-25T11:00:41.778Z,65.53
2018-12-25T11:03:13.072Z,65.12
2018-12-25T11:05:40.544Z,65.77
2018-12-25T11:08:09.085Z,64.62
2018-12-25T11:10:37.645Z,64.83
2018-12-25T11:13:06.094Z,63.71
2018-12-25T11:15:34.745Z,64.74
2018-12-25T11:18:03.363Z,64.50
2018-12-25T11:20:31.980Z,64.62
2018-12-25T11:23:00.544Z,65.30
2018-12-25T11:25:29.095Z,63.72
2018-12-25T11:27:57.691Z,64.01
2018-12-25T11:30:26.324Z,63.11
2018-12-25T11:32:55.006Z,64.61
2018-12-25T11:35:23.692Z,64.78
2018-12-25T11:37:52.268Z,64.55
2018-12-25T11:40:20.874Z,64.69
2018-12-25T11:42:49.388Z,64.83
2018-12-25T11:45:18.449Z,65.06
2018-12-25T11:47:47.173Z,64.02
2018-12-25T11:50:15.676Z,63.05
2018-12-25T11:52:44.405Z,64.49
2018-12-25T11:55:12.843Z,65.08
2018-12-25T11:57:41.360Z,64.00
2018-12-25T12:00:10.149Z,62.73
2018-12-25T12:02:38.760Z,62.03
2018-12-25T12:05:07.342Z,62.05
2018-12-25T12:07:36.051Z,63.05
2018-12-25T12:10:07.444Z,63.02
2018-12-25T12:12:36.014Z,62.53
2018-12-25T12:15:05.117Z,62.63
2018-12-25T12:17:33.664Z,63.91
2018-12-25T12:20:02.273Z,63.14
2018-12-25T12:22:36.979Z,61.64
2018-12-25T12:25:01.214Z,63.06
2018-12-25T12:27:30.788Z,64.81
2018-12-25T12:29:59.373Z,64.16
2018-12-25T12:32:27.933Z,65.28
2018-12-25T12:34:56.486Z,62.12
2018-12-25T12:37:24.947Z,63.09
2018-12-25T12:39:53.431Z,62.91
2018-12-25T12:42:21.971Z,61.55
2018-12-25T12:44:50.587Z,62.24
2018-12-25T12:47:19.165Z,62.73
2018-12-25T12:49:47.647Z,62.73
2018-12-25T12:52:16.173Z,62.78
2018-12-25T12:54:44.812Z,63.56
2018-12-25T12:57:13.401Z,62.30
2018-12-25T12:59:41.956Z,63.11
2018-12-25T13:02:10.569Z,62.22
2018-12-25T13:04:39.113Z,62.75
2018-12-25T13:07:07.633Z,65.26
2018-12-25T13:09:36.339Z,63.78
2018-12-25T13:12:04.967Z,61.74
2018-12-25T13:14:33.599Z,62.18
2018-12-25T13:17:02.108Z,61.56
2018-12-25T13:19:30.838Z,61.21
2018-12-25T13:21:59.444Z,63.26
2018-12-25T13:24:28.152Z,62.41
2018-12-25T13:26:56.752Z,63.89
2018-12-25T13:29:25.358Z,62.91
2018-12-25T13:31:53.888Z,63.44
2018-12-25T13:34:22.529Z,63.90
2018-12-25T13:36:50.994Z,63.72
2018-12-25T13:39:19.546Z,63.38
2018-12-25T13:41:48.102Z,63.26
2018-12-25T13:44:16.721Z,63.26
2018-12-25T13:46:51.526Z,61.22
2018-12-25T13:49:15.660Z,60.67
2018-12-25T13:51:44.180Z,62.00
2018-12-25T13:54:12.768Z,62.20
2018-12-25T13:56:41.383Z,60.81
2018-12-25T13:59:09.963Z,61.55
2018-12-25T14:01:38.506Z,62.43
2018-12-25T14:04:07.188Z,62.25
2018-12-25T14:06:35.706Z,62.52
2018-12-25T14:09:06.043Z,61.72
2018-12-25T14:11:34.613Z,62.15
2018-12-25T14:14:03.193Z,62.64
2018-12-25T14:16:32.625Z,63.71
2018-12-25T14:19:01.127Z,63.71
2018-12-25T14:21:29.704Z,62.45
2018-12-25T14:23:58.239Z,60.95
2018-12-25T14:26:26.843Z,61.77
2018-12-25T14:28:56.588Z,61.33
2018-12-25T14:31:25.282Z,61.99
2018-12-25T14:33:53.902Z,62.56
2018-12-25T14:36:22.408Z,63.36
2018-12-25T14:38:51.081Z,63.77
2018-12-25T14:41:19.688Z,63.16
2018-12-25T14:43:48.302Z,61.61
2018-12-25T14:46:16.829Z,63.00
2018-12-25T14:48:45.381Z,64.13
2018-12-25T14:51:14.052Z,63.70
2018-12-25T14:53:42.731Z,65.91
2018-12-25T14:56:11.251Z,63.27
2018-12-25T14:58:39.823Z,62.79
2018-12-25T15:01:08.472Z,63.80
2018-12-25T15:03:36.987Z,62.73
2018-12-25T15:06:05.542Z,63.11
2018-12-25T15:08:34.225Z,63.42
2018-12-25T15:11:02.752Z,62.80
2018-12-25T15:13:31.361Z,63.10
2018-12-25T15:15:59.990Z,64.05
2018-12-25T15:18:28.510Z,64.31
2018-12-25T15:20:57.101Z,63.06
2018-12-25T15:23:28.304Z,64.23
2018-12-25T15:25:55.983Z,64.28
2018-12-25T15:28:24.532Z,66.01
2018-12-25T15:30:53.540Z,63.97
2018-12-25T15:33:22.182Z,62.45
2018-12-25T15:35:50.778Z,63.29
2018-12-25T15:38:19.433Z,63.03
2018-12-25T15:40:48.170Z,62.51
2018-12-25T15:43:16.772Z,63.26
2018-12-25T15:45:45.397Z,63.67
2018-12-25T15:48:13.848Z,64.24
2018-12-25T15:50:42.413Z,64.06
2018-12-25T15:53:11.023Z,64.14
2018-12-25T15:55:39.627Z,64.78
2018-12-25T15:58:08.404Z,64.32
2018-12-25T16:00:36.968Z,65.22
2018-12-25T16:03:05.515Z,67.47
2018-12-25T16:05:34.037Z,64.68
2018-12-25T16:08:02.667Z,64.68
2018-12-25T16:10:31.251Z,62.89
2018-12-25T16:12:59.808Z,64.10
2018-12-25T16:15:28.326Z,64.10
2018-12-25T16:17:56.812Z,64.56
2018-12-25T16:20:25.445Z,66.00
2018-12-25T16:22:53.861Z,65.85
2018-12-25T16:25:22.429Z,65.41
2018-12-25T16:27:51.059Z,65.35
2018-12-25T16:30:19.686Z,65.14
2018-12-25T16:32:48.227Z,65.54
2018-12-25T16:35:16.779Z,65.46
2018-12-25T16:37:45.485Z,65.95
2018-12-25T16:40:14.113Z,67.64
2018-12-25T16:42:42.664Z,64.89
2018-12-25T16:45:11.278Z,65.26
2018-12-25T16:47:39.922Z,65.11
2018-12-25T16:50:08.503Z,65.16
2018-12-25T16:52:37.148Z,65.38
2018-12-25T16:55:05.827Z,64.48
2018-12-25T16:57:34.424Z,65.97
2018-12-25T17:00:03.343Z,66.98
2018-12-25T17:02:31.875Z,65.34
2018-12-25T17:05:00.451Z,66.05
2018-12-25T17:07:29.566Z,66.07
2018-12-25T17:09:58.182Z,65.71
2018-12-25T17:12:26.795Z,65.60
2018-12-25T17:14:55.411Z,69.25
2018-12-25T17:17:23.884Z,64.96
2018-12-25T17:19:52.429Z,64.75
2018-12-25T17:22:21.013Z,63.43
2018-12-25T17:24:49.495Z,65.13
2018-12-25T17:27:18.059Z,65.05
2018-12-25T17:29:46.652Z,66.06
2018-12-25T17:32:15.293Z,65.53
2018-12-25T17:34:43.824Z,66.05
2018-12-25T17:37:12.517Z,65.72
2018-12-25T17:39:41.006Z,65.46
2018-12-25T17:42:09.599Z,65.18
2018-12-25T17:44:38.248Z,65.40
2018-12-25T17:47:06.878Z,65.72
2018-12-25T17:49:35.348Z,67.54
2018-12-25T17:52:03.878Z,68.18
2018-12-25T17:54:32.447Z,65.22
2018-12-25T17:57:01.046Z,65.25
2018-12-25T17:59:29.698Z,64.67
2018-12-25T18:01:58.341Z,64.17
2018-12-25T18:04:26.854Z,64.83
2018-12-25T18:06:55.485Z,66.07
2018-12-25T18:09:24.098Z,65.95
2018-12-25T18:11:52.667Z,66.46
2018-12-25T18:14:21.355Z,65.38
2018-12-25T18:16:49.972Z,66.19
2018-12-25T18:19:19.302Z,65.84
2018-12-25T18:21:47.933Z,65.99
2018-12-25T18:24:19.488Z,66.19
2018-12-25T18:26:46.801Z,67.07
2018-12-25T18:29:15.334Z,66.21
2018-12-25T18:31:43.968Z,63.96
2018-12-25T18:34:12.501Z,64.84
2018-12-25T18:36:41.043Z,65.11
2018-12-25T18:39:09.652Z,65.73
2018-12-25T18:41:38.247Z,65.93
2018-12-25T18:44:07.425Z,66.24
2018-12-25T18:46:36.065Z,66.24
2018-12-25T18:49:04.653Z,65.81
2018-12-25T18:51:33.207Z,66.42
2018-12-25T18:54:01.798Z,65.85
2018-12-25T18:56:30.420Z,65.46
2018-12-25T18:58:59.078Z,65.45
2018-12-25T19:01:27.657Z,67.50
2018-12-25T19:03:56.247Z,66.27
2018-12-25T19:06:24.810Z,65.21
2018-12-25T19:08:53.436Z,65.36
2018-12-25T19:11:22.081Z,65.32
2018-12-25T19:13:50.577Z,66.18
2018-12-25T19:16:19.208Z,66.50
2018-12-25T19:18:47.926Z,66.22
2018-12-25T19:21:16.527Z,67.00
2018-12-25T19:23:48.042Z,67.17
2018-12-25T19:26:17.128Z,66.59
2018-12-25T19:28:45.747Z,66.79
2018-12-25T19:31:14.369Z,66.61
2018-12-25T19:33:43.068Z,66.84
2018-12-25T19:36:11.977Z,67.55
2018-12-25T19:38:40.562Z,68.07
2018-12-25T19:41:09.128Z,65.85
2018-12-25T19:43:37.698Z,65.23
2018-12-25T19:46:06.248Z,66.34
2018-12-25T19:48:34.861Z,66.46
2018-12-25T19:51:03.483Z,66.99
2018-12-25T19:53:32.298Z,67.82
2018-12-25T19:56:00.940Z,67.76
2018-12-25T19:58:29.598Z,67.10
2018-12-25T20:00:58.203Z,66.95
2018-12-25T20:03:26.822Z,67.58
2018-12-25T20:06:04.415Z,66.91
2018-12-25T20:08:45.335Z,67.13
2018-12-25T20:11:33.150Z,67.83
2018-12-25T20:14:25.351Z,72.12
2018-12-25T20:17:05.480Z,68.02
2018-12-25T20:19:51.787Z,66.59
2018-12-25T20:22:34.933Z,67.75
2018-12-25T20:25:33.664Z,67.36
2018-12-25T20:28:07.827Z,67.77
2018-12-25T20:31:04.481Z,68.90
2018-12-25T20:33:41.899Z,68.93
2018-12-25T20:36:40.932Z,68.76
2018-12-25T20:39:28.945Z,68.41
2018-12-25T20:42:09.421Z,68.13
2018-12-25T20:45:16.464Z,67.88
2018-12-25T20:48:21.073Z,67.77
2018-12-25T20:51:01.157Z,68.69
2018-12-25T20:53:47.966Z,67.53
2018-12-25T20:56:43.323Z,66.70
2018-12-25T20:59:23.845Z,67.54
2018-12-25T21:02:07.672Z,68.68
2018-12-25T21:04:55.957Z,69.33
2018-12-25T21:07:30.217Z,69.61
2018-12-25T21:10:35.396Z,69.74
2018-12-25T21:13:24.902Z,69.29
2018-12-25T21:16:08.249Z,68.98
2018-12-25T21:18:56.095Z,68.99
2018-12-25T21:21:39.478Z,68.32
2018-12-25T21:24:33.419Z,70.05
2018-12-25T21:27:32.375Z,69.57
2018-12-25T21:30:02.240Z,68.65
2018-12-25T21:32:32.567Z,69.02
2018-12-25T21:35:16.105Z,68.83
2018-12-25T21:37:45.662Z,69.79
2018-12-25T21:40:14.314Z,69.53
2018-12-25T21:42:43.014Z,69.52
2018-12-25T21:45:12.500Z,70.15
2018-12-25T21:47:42.295Z,69.71
2018-12-25T21:50:11.397Z,69.24
2018-12-25T21:52:40.248Z,69.06
2018-12-25T21:55:18.300Z,68.78
2018-12-25T21:57:40.309Z,68.17
2018-12-25T22:00:11.469Z,71.40
2018-12-25T22:02:40.750Z,70.55
2018-12-25T22:05:09.387Z,67.78
2018-12-25T22:07:38.033Z,68.05
2018-12-25T22:10:07.437Z,69.14
2018-12-25T22:12:36.064Z,71.67
2018-12-25T22:15:06.184Z,71.21
2018-12-25T22:17:34.821Z,71.13
2018-12-25T22:20:11.539Z,71.34
2018-12-25T22:22:40.233Z,70.79
2018-12-25T22:25:08.790Z,70.67
2018-12-25T22:27:37.382Z,69.93
2018-12-25T22:30:06.414Z,70.01
2018-12-25T22:32:34.906Z,70.45
2018-12-25T22:35:03.495Z,71.82
2018-12-25T22:37:32.347Z,71.70
2018-12-25T22:40:00.857Z,69.83
2018-12-25T22:42:29.425Z,68.69
2018-12-25T22:44:58.027Z,69.15
2018-12-25T22:47:26.545Z,70.35
2018-12-25T22:49:55.308Z,70.99
2018-12-25T22:52:23.922Z,71.21
2018-12-25T22:54:52.509Z,71.08
2018-12-25T22:57:21.047Z,71.03
2018-12-25T22:59:49.616Z,70.83
2018-12-25T23:02:18.314Z,70.59
2018-12-25T23:04:46.954Z,70.90
2018-12-25T23:07:15.430Z,70.15
2018-12-25T23:09:44.061Z,70.73
2018-12-25T23:12:12.652Z,72.97
2018-12-25T23:14:41.259Z,70.71
2018-12-25T23:17:09.818Z,68.49
2018-12-25T23:19:38.403Z,69.54
2018-12-25T23:22:06.970Z,70.65
2018-12-25T23:24:35.421Z,70.80
2018-12-25T23:27:03.954Z,70.99
2018-12-25T23:29:32.514Z,71.21
2018-12-25T23:32:01.032Z,70.83
2018-12-25T23:34:29.503Z,71.01
2018-12-25T23:36:57.944Z,70.75
2018-12-25T23:39:26.499Z,70.64
2018-12-25T23:41:55.242Z,70.81
2018-12-25T23:44:23.760Z,71.83
2018-12-25T23:46:52.359Z,73.01
2018-12-25T23:49:21.030Z,73.26
2018-12-25T23:51:49.667Z,71.07
2018-12-25T23:54:18.779Z,70.31
2018-12-25T23:56:47.402Z,71.03
2018-12-25T23:59:16.069Z,72.19
